createdAt,value
2018-08-30T00:00:16.910Z,0.00
2018-08-30T00:01:16.804Z,0.00
2018-08-30T00:02:16.711Z,0.00
2018-08-30T00:03:16.619Z,0.00
2018-08-30T00:04:16.524Z,0.00
2018-08-30T00:05:16.418Z,0.00
2018-08-30T00:06:16.324Z,0.00
2018-08-30T00:07:16.219Z,0.00
2018-08-30T00:08:16.129Z,0.00
2018-08-30T00:09:16.040Z,0.00
2018-08-30T00:10:15.938Z,0.00
2018-08-30T00:11:15.846Z,0.00
2018-08-30T00:12:15.742Z,0.00
2018-08-30T00:13:15.654Z,0.00
2018-08-30T00:14:15.551Z,0.00
2018-08-30T00:15:15.460Z,0.00
2018-08-30T00:16:15.356Z,0.00
2018-08-30T00:17:15.262Z,0.00
2018-08-30T00:18:15.158Z,0.00
2018-08-30T00:19:15.071Z,0.00
2018-08-30T00:20:14.998Z,0.00
2018-08-30T00:21:14.875Z,0.00
2018-08-30T00:22:14.785Z,0.00
2018-08-30T00:23:14.681Z,0.00
2018-08-30T00:24:14.589Z,0.00
2018-08-30T00:25:14.490Z,0.00
2018-08-30T00:26:14.400Z,0.00
2018-08-30T00:27:14.291Z,0.00
2018-08-30T00:28:14.202Z,0.00
2018-08-30T00:29:14.102Z,0.00
2018-08-30T00:30:14.010Z,0.00
2018-08-30T00:31:13.920Z,0.00
2018-08-30T00:32:13.817Z,0.00
2018-08-30T00:33:13.724Z,0.00
2018-08-30T00:34:13.620Z,0.00
2018-08-30T00:35:13.530Z,0.00
2018-08-30T00:36:13.427Z,0.00
2018-08-30T00:37:13.332Z,0.00
2018-08-30T00:38:13.229Z,0.00
2018-08-30T00:39:13.140Z,0.00
2018-08-30T00:40:13.040Z,0.00
2018-08-30T00:41:13.005Z,0.00
2018-08-30T00:42:13.148Z,0.00
2018-08-30T00:43:12.752Z,0.00
2018-08-30T00:44:12.648Z,0.00
2018-08-30T00:45:12.560Z,0.00
2018-08-30T00:46:12.472Z,0.00
2018-08-30T00:47:12.367Z,0.00
2018-08-30T00:48:12.278Z,0.00
2018-08-30T00:49:12.170Z,0.00
2018-08-30T00:50:12.078Z,0.00
2018-08-30T00:51:11.979Z,0.00
2018-08-30T00:52:11.889Z,0.00
2018-08-30T00:53:11.784Z,0.00
2018-08-30T00:54:11.690Z,0.00
2018-08-30T00:55:11.587Z,0.00
2018-08-30T00:56:11.494Z,0.00
2018-08-30T00:57:11.396Z,0.00
2018-08-30T00:58:11.304Z,0.00
2018-08-30T00:59:11.199Z,0.00
2018-08-30T01:00:11.109Z,0.00
2018-08-30T01:01:11.013Z,0.00
2018-08-30T01:02:10.918Z,0.00
2018-08-30T01:03:10.813Z,0.00
2018-08-30T01:04:10.723Z,0.00
2018-08-30T01:05:10.626Z,0.00
2018-08-30T01:06:10.523Z,0.00
2018-08-30T01:07:10.427Z,0.00
2018-08-30T01:08:10.334Z,0.00
2018-08-30T01:09:10.240Z,0.00
2018-08-30T01:10:10.134Z,0.00
2018-08-30T01:11:10.047Z,0.00
2018-08-30T01:12:09.946Z,0.00
2018-08-30T01:13:09.856Z,0.00
2018-08-30T01:14:09.752Z,0.00
2018-08-30T01:15:09.656Z,0.00
2018-08-30T01:16:09.553Z,0.00
2018-08-30T01:17:09.466Z,0.00
2018-08-30T01:18:09.362Z,0.00
2018-08-30T01:19:09.274Z,0.00
2018-08-30T01:20:09.171Z,0.00
2018-08-30T01:21:09.075Z,0.00
2018-08-30T01:22:08.972Z,0.00
2018-08-30T01:23:08.886Z,0.00
2018-08-30T01:24:08.784Z,0.00
2018-08-30T01:25:08.687Z,0.00
2018-08-30T01:26:08.591Z,0.00
2018-08-30T01:27:08.492Z,0.00
2018-08-30T01:28:08.391Z,0.00
2018-08-30T01:29:08.301Z,0.00
2018-08-30T01:30:08.198Z,0.00
2018-08-30T01:31:08.108Z,0.00
2018-08-30T01:32:08.010Z,0.00
2018-08-30T01:33:07.914Z,0.00
2018-08-30T01:34:07.812Z,0.00
2018-08-30T01:35:07.720Z,0.00
2018-08-30T01:36:07.616Z,0.00
2018-08-30T01:37:07.521Z,0.00
2018-08-30T01:38:07.417Z,0.00
2018-08-30T01:39:07.327Z,0.00
2018-08-30T01:40:07.223Z,0.00
2018-08-30T01:41:07.136Z,0.00
2018-08-30T01:42:07.032Z,0.00
2018-08-30T01:43:06.945Z,0.00
2018-08-30T01:44:06.842Z,0.00
2018-08-30T01:45:06.745Z,0.00
2018-08-30T01:46:06.656Z,0.00
2018-08-30T01:47:06.554Z,0.00
2018-08-30T01:48:06.451Z,0.00
2018-08-30T01:49:06.359Z,0.00
2018-08-30T01:50:06.252Z,0.00
2018-08-30T01:51:06.164Z,0.00
2018-08-30T01:52:06.061Z,0.00
2018-08-30T01:53:05.976Z,0.00
2018-08-30T01:54:05.870Z,0.00
2018-08-30T01:55:05.776Z,0.00
2018-08-30T01:56:05.676Z,0.00
2018-08-30T01:57:05.587Z,0.00
2018-08-30T01:58:05.482Z,0.00
2018-08-30T01:59:05.392Z,0.00
2018-08-30T02:00:05.290Z,0.00
2018-08-30T02:01:05.190Z,0.00
2018-08-30T02:02:05.089Z,0.00
2018-08-30T02:03:05.004Z,0.00
2018-08-30T02:04:04.900Z,0.00
2018-08-30T02:05:04.805Z,0.00
2018-08-30T02:06:04.704Z,0.00
2018-08-30T02:07:04.847Z,0.00
2018-08-30T02:08:04.505Z,0.00
2018-08-30T02:09:04.419Z,0.00
2018-08-30T02:10:04.315Z,0.00
2018-08-30T02:11:04.209Z,0.00
2018-08-30T02:12:04.118Z,0.00
2018-08-30T02:13:04.019Z,0.00
2018-08-30T02:14:03.927Z,0.00
2018-08-30T02:15:03.826Z,0.00
2018-08-30T02:16:03.739Z,0.00
2018-08-30T02:17:03.629Z,0.00
2018-08-30T02:18:03.550Z,0.00
2018-08-30T02:19:03.439Z,0.00
2018-08-30T02:20:03.346Z,0.00
2018-08-30T02:21:03.242Z,0.00
2018-08-30T02:22:03.146Z,0.00
2018-08-30T02:23:03.045Z,0.00
2018-08-30T02:24:02.955Z,0.00
2018-08-30T02:25:02.856Z,0.00
2018-08-30T02:26:02.765Z,0.00
2018-08-30T02:27:02.657Z,0.00
2018-08-30T02:28:02.567Z,0.00
2018-08-30T02:29:02.468Z,0.00
2018-08-30T02:30:02.373Z,0.00
2018-08-30T02:31:02.272Z,0.00
2018-08-30T02:32:02.168Z,0.00
2018-08-30T02:33:02.074Z,0.00
2018-08-30T02:34:01.975Z,0.00
2018-08-30T02:35:01.887Z,0.00
2018-08-30T02:36:01.782Z,0.00
2018-08-30T02:37:01.991Z,0.00
2018-08-30T02:38:01.584Z,0.00
2018-08-30T02:39:01.491Z,0.00
2018-08-30T02:40:01.387Z,0.00
2018-08-30T02:41:01.301Z,0.00
2018-08-30T02:42:01.199Z,0.00
2018-08-30T02:43:01.105Z,0.00
2018-08-30T02:44:01.007Z,0.00
2018-08-30T02:45:00.904Z,0.00
2018-08-30T02:46:00.813Z,0.00
2018-08-30T02:47:00.956Z,0.00
2018-08-30T02:48:00.615Z,0.00
2018-08-30T02:49:00.540Z,0.00
2018-08-30T02:50:00.421Z,0.00
2018-08-30T02:51:00.321Z,0.00
2018-08-30T02:52:00.242Z,0.00
2018-08-30T02:53:00.122Z,0.00
2018-08-30T02:54:00.031Z,0.00
2018-08-30T02:54:59.926Z,0.00
2018-08-30T02:55:59.834Z,0.00
2018-08-30T02:56:59.738Z,0.00
2018-08-30T02:57:59.645Z,0.00
2018-08-30T02:58:59.539Z,0.00
2018-08-30T02:59:59.446Z,0.00
2018-08-30T03:00:59.347Z,0.00
2018-08-30T03:01:59.244Z,0.00
2018-08-30T03:02:59.156Z,0.00
2018-08-30T03:03:59.053Z,0.00
2018-08-30T03:04:58.969Z,0.00
2018-08-30T03:05:58.853Z,0.00
2018-08-30T03:06:58.766Z,0.00
2018-08-30T03:07:58.662Z,0.00
2018-08-30T03:08:58.567Z,0.00
2018-08-30T03:09:58.470Z,0.00
2018-08-30T03:10:58.377Z,0.00
2018-08-30T03:11:58.274Z,0.00
2018-08-30T03:12:58.187Z,0.00
2018-08-30T03:13:58.084Z,0.00
2018-08-30T03:14:57.977Z,0.00
2018-08-30T03:15:57.886Z,0.00
2018-08-30T03:16:57.792Z,0.00
2018-08-30T03:17:57.700Z,0.00
2018-08-30T03:18:57.598Z,0.00
2018-08-30T03:19:57.510Z,0.00
2018-08-30T03:20:57.404Z,0.00
2018-08-30T03:21:57.313Z,0.00
2018-08-30T03:22:57.208Z,0.00
2018-08-30T03:23:57.119Z,0.00
2018-08-30T03:24:57.016Z,0.00
2018-08-30T03:25:56.923Z,0.00
2018-08-30T03:26:56.825Z,0.00
2018-08-30T03:27:56.730Z,0.00
2018-08-30T03:28:56.627Z,0.00
2018-08-30T03:29:56.525Z,0.00
2018-08-30T03:30:56.445Z,0.00
2018-08-30T03:31:56.329Z,0.00
2018-08-30T03:32:56.239Z,0.00
2018-08-30T03:33:56.136Z,0.00
2018-08-30T03:34:56.044Z,0.00
2018-08-30T03:35:55.940Z,0.00
2018-08-30T03:36:55.851Z,0.00
2018-08-30T03:37:55.747Z,0.00
2018-08-30T03:38:55.657Z,0.00
2018-08-30T03:39:55.568Z,0.00
2018-08-30T03:40:55.463Z,4.00
2018-08-30T03:41:55.358Z,4.00
2018-08-30T03:42:55.268Z,4.00
2018-08-30T03:43:55.164Z,0.00
2018-08-30T03:44:55.074Z,4.00
2018-08-30T03:45:54.971Z,4.00
2018-08-30T03:46:54.937Z,8.00
2018-08-30T03:47:54.776Z,4.00
2018-08-30T03:48:54.688Z,4.00
2018-08-30T03:49:54.587Z,8.00
2018-08-30T03:50:54.491Z,4.00
2018-08-30T03:51:54.387Z,8.00
2018-08-30T03:52:54.300Z,8.00
2018-08-30T03:53:54.195Z,8.00
2018-08-30T03:54:54.102Z,8.00
2018-08-30T03:55:53.999Z,12.00
2018-08-30T03:56:53.910Z,16.00
2018-08-30T03:57:53.806Z,12.00
2018-08-30T03:58:53.714Z,20.00
2018-08-30T03:59:53.611Z,24.00
2018-08-30T04:00:53.522Z,28.00
2018-08-30T04:01:53.424Z,36.00
2018-08-30T04:02:53.326Z,40.00
2018-08-30T04:03:53.223Z,52.00
2018-08-30T04:04:53.133Z,56.00
2018-08-30T04:05:53.029Z,64.00
2018-08-30T04:06:52.955Z,76.00
2018-08-30T04:07:52.835Z,84.00
2018-08-30T04:08:52.745Z,92.00
2018-08-30T04:09:52.665Z,100.00
2018-08-30T04:10:52.551Z,112.00
2018-08-30T04:11:52.447Z,128.00
2018-08-30T04:12:52.356Z,140.00
2018-08-30T04:13:52.253Z,156.00
2018-08-30T04:14:52.161Z,168.00
2018-08-30T04:15:52.059Z,184.00
2018-08-30T04:16:51.968Z,196.00
2018-08-30T04:17:51.864Z,212.00
2018-08-30T04:18:51.775Z,236.00
2018-08-30T04:19:51.670Z,272.00
2018-08-30T04:20:51.580Z,320.00
2018-08-30T04:21:51.480Z,364.00
2018-08-30T04:22:51.385Z,408.00
2018-08-30T04:23:51.283Z,452.00
2018-08-30T04:24:51.192Z,504.00
2018-08-30T04:25:51.089Z,552.00
2018-08-30T04:26:51.010Z,592.00
2018-08-30T04:27:50.894Z,636.00
2018-08-30T04:28:50.803Z,672.00
2018-08-30T04:29:50.700Z,700.00
2018-08-30T04:30:50.608Z,740.00
2018-08-30T04:31:50.506Z,764.00
2018-08-30T04:32:50.415Z,796.00
2018-08-30T04:33:50.312Z,848.00
2018-08-30T04:34:50.221Z,916.00
2018-08-30T04:35:50.128Z,992.00
2018-08-30T04:36:50.019Z,1060.00
2018-08-30T04:37:49.929Z,1116.00
2018-08-30T04:38:49.836Z,1140.00
2018-08-30T04:39:49.732Z,1140.00
2018-08-30T04:40:49.628Z,1108.00
2018-08-30T04:41:49.783Z,1080.00
2018-08-30T04:42:49.482Z,1084.00
2018-08-30T04:43:49.346Z,1112.00
2018-08-30T04:44:49.248Z,1136.00
2018-08-30T04:45:49.155Z,1140.00
2018-08-30T04:46:49.043Z,1136.00
2018-08-30T04:47:48.951Z,1140.00
2018-08-30T04:48:48.864Z,1192.00
2018-08-30T04:49:48.760Z,1268.00
2018-08-30T04:50:48.669Z,1300.00
2018-08-30T04:51:48.565Z,1284.00
2018-08-30T04:52:48.492Z,1268.00
2018-08-30T04:53:48.374Z,1260.00
2018-08-30T04:54:48.282Z,1248.00
2018-08-30T04:55:48.179Z,1220.00
2018-08-30T04:56:48.083Z,1152.00
2018-08-30T04:57:47.982Z,1060.00
2018-08-30T04:58:47.896Z,988.00
2018-08-30T04:59:47.805Z,940.00
2018-08-30T05:00:47.696Z,908.00
2018-08-30T05:01:47.698Z,912.00
2018-08-30T05:02:47.503Z,948.00
2018-08-30T05:03:47.410Z,1000.00
2018-08-30T05:04:47.326Z,980.00
2018-08-30T05:05:47.259Z,988.00
2018-08-30T05:06:47.125Z,992.00
2018-08-30T05:07:47.022Z,988.00
2018-08-30T05:08:46.936Z,1008.00
2018-08-30T05:09:46.844Z,1020.00
2018-08-30T05:10:46.743Z,1032.00
2018-08-30T05:11:46.903Z,1040.00
2018-08-30T05:12:46.546Z,1072.00
2018-08-30T05:13:46.454Z,1108.00
2018-08-30T05:14:46.355Z,1152.00
2018-08-30T05:15:46.263Z,1204.00
2018-08-30T05:16:46.168Z,1272.00
2018-08-30T05:17:46.065Z,1348.00
2018-08-30T05:18:45.976Z,1416.00
2018-08-30T05:19:45.874Z,1488.00
2018-08-30T05:20:45.785Z,1560.00
2018-08-30T05:21:45.984Z,1624.00
2018-08-30T05:22:45.589Z,1688.00
2018-08-30T05:23:45.497Z,1776.00
2018-08-30T05:24:45.399Z,1904.00
2018-08-30T05:25:45.308Z,2048.00
2018-08-30T05:26:45.204Z,2192.00
2018-08-30T05:27:45.111Z,2312.00
2018-08-30T05:28:45.017Z,2396.00
2018-08-30T05:29:44.930Z,2420.00
2018-08-30T05:30:44.827Z,2340.00
2018-08-30T05:31:44.725Z,2164.00
2018-08-30T05:32:44.630Z,1920.00
2018-08-30T05:33:44.527Z,1676.00
2018-08-30T05:34:44.433Z,1512.00
2018-08-30T05:35:44.378Z,1432.00
2018-08-30T05:36:44.245Z,1424.00
2018-08-30T05:37:44.155Z,1464.00
2018-08-30T05:38:44.046Z,1516.00
2018-08-30T05:39:43.958Z,1560.00
2018-08-30T05:40:43.867Z,1576.00
2018-08-30T05:41:44.015Z,1584.00
2018-08-30T05:42:43.665Z,1600.00
2018-08-30T05:43:43.577Z,1620.00
2018-08-30T05:44:43.506Z,1644.00
2018-08-30T05:45:43.374Z,1668.00
2018-08-30T05:46:43.296Z,1716.00
2018-08-30T05:47:43.182Z,1780.00
2018-08-30T05:48:43.089Z,1868.00
2018-08-30T05:49:42.997Z,1980.00
2018-08-30T05:50:42.896Z,2112.00
2018-08-30T05:51:42.806Z,2292.00
2018-08-30T05:52:42.705Z,2512.00
2018-08-30T05:53:42.614Z,2696.00
2018-08-30T05:54:42.505Z,2876.00
2018-08-30T05:55:42.415Z,2992.00
2018-08-30T05:56:42.351Z,3004.00
2018-08-30T05:57:42.224Z,2940.00
2018-08-30T05:58:42.136Z,2836.00
2018-08-30T05:59:42.032Z,2704.00
2018-08-30T06:00:41.938Z,2600.00
2018-08-30T06:01:41.836Z,2624.00
2018-08-30T06:02:41.758Z,2792.00
2018-08-30T06:03:41.641Z,3048.00
2018-08-30T06:04:41.548Z,3336.00
2018-08-30T06:05:41.443Z,3640.00
2018-08-30T06:06:41.354Z,3960.00
2018-08-30T06:07:41.252Z,4248.00
2018-08-30T06:08:41.165Z,4476.00
2018-08-30T06:09:41.074Z,4628.00
2018-08-30T06:10:40.966Z,4796.00
2018-08-30T06:11:40.879Z,4996.00
2018-08-30T06:12:40.777Z,5152.00
2018-08-30T06:13:40.688Z,5244.00
2018-08-30T06:14:40.581Z,5296.00
2018-08-30T06:15:40.490Z,5284.00
2018-08-30T06:16:40.386Z,5244.00
2018-08-30T06:17:40.290Z,5276.00
2018-08-30T06:18:40.197Z,5380.00
2018-08-30T06:19:40.104Z,5528.00
2018-08-30T06:20:40.008Z,5640.00
2018-08-30T06:21:40.204Z,5660.00
2018-08-30T06:22:39.815Z,5572.00
2018-08-30T06:23:39.710Z,5508.00
2018-08-30T06:24:39.621Z,5488.00
2018-08-30T06:25:39.519Z,5524.00
2018-08-30T06:26:39.428Z,5624.00
2018-08-30T06:27:39.333Z,5784.00
2018-08-30T06:28:39.234Z,5964.00
2018-08-30T06:29:39.144Z,6296.00
2018-08-30T06:30:39.043Z,6748.00
2018-08-30T06:31:38.950Z,7300.00
2018-08-30T06:32:38.857Z,7604.00
2018-08-30T06:33:38.753Z,7804.00
2018-08-30T06:34:38.691Z,7992.00
2018-08-30T06:35:38.560Z,8268.00
2018-08-30T06:36:38.467Z,8592.00
2018-08-30T06:37:38.363Z,8884.00
2018-08-30T06:38:38.349Z,9204.00
2018-08-30T06:39:38.187Z,9484.00
2018-08-30T06:40:38.083Z,9772.00
2018-08-30T06:41:37.993Z,10056.00
2018-08-30T06:42:37.885Z,10264.00
2018-08-30T06:43:37.795Z,10516.00
2018-08-30T06:44:37.708Z,10872.00
2018-08-30T06:45:37.604Z,11252.00
2018-08-30T06:46:37.512Z,11812.00
2018-08-30T06:47:37.433Z,12024.00
2018-08-30T06:48:37.379Z,12104.00
2018-08-30T06:49:37.226Z,11912.00
2018-08-30T06:50:37.130Z,11328.00
2018-08-30T06:51:37.049Z,10912.00
2018-08-30T06:52:36.940Z,10392.00
2018-08-30T06:53:36.837Z,9556.00
2018-08-30T06:54:36.743Z,8492.00
2018-08-30T06:55:36.653Z,7452.00
2018-08-30T06:56:36.554Z,6408.00
2018-08-30T06:57:36.463Z,5528.00
2018-08-30T06:58:36.411Z,4908.00
2018-08-30T06:59:36.268Z,4548.00
2018-08-30T07:00:36.180Z,4264.00
2018-08-30T07:01:36.089Z,4156.00
2018-08-30T07:02:35.985Z,4040.00
2018-08-30T07:03:35.892Z,3928.00
2018-08-30T07:04:35.805Z,3808.00
2018-08-30T07:05:35.696Z,3688.00
2018-08-30T07:06:35.610Z,3624.00
2018-08-30T07:07:35.520Z,3572.00
2018-08-30T07:08:35.414Z,3628.00
2018-08-30T07:09:35.320Z,3608.00
2018-08-30T07:10:35.217Z,3592.00
2018-08-30T07:11:35.126Z,3748.00
2018-08-30T07:12:35.038Z,3928.00
2018-08-30T07:13:34.935Z,4148.00
2018-08-30T07:14:34.896Z,4452.00
2018-08-30T07:15:34.749Z,4708.00
2018-08-30T07:16:34.650Z,4920.00
2018-08-30T07:17:34.562Z,5076.00
2018-08-30T07:18:34.470Z,5172.00
2018-08-30T07:19:34.368Z,5328.00
2018-08-30T07:20:34.276Z,5492.00
2018-08-30T07:21:34.170Z,5748.00
2018-08-30T07:22:34.084Z,6068.00
2018-08-30T07:23:33.991Z,6452.00
2018-08-30T07:24:33.882Z,6840.00
2018-08-30T07:25:33.790Z,7216.00
2018-08-30T07:26:33.691Z,7508.00
2018-08-30T07:27:33.599Z,7752.00
2018-08-30T07:28:33.518Z,8084.00
2018-08-30T07:29:33.409Z,8508.00
2018-08-30T07:30:33.315Z,9140.00
2018-08-30T07:31:33.214Z,9804.00
2018-08-30T07:32:33.124Z,10516.00
2018-08-30T07:33:33.035Z,11172.00
2018-08-30T07:34:32.951Z,11636.00
2018-08-30T07:35:32.836Z,12036.00
2018-08-30T07:36:32.730Z,12612.00
2018-08-30T07:37:32.640Z,13216.00
2018-08-30T07:38:32.566Z,13836.00
2018-08-30T07:39:32.451Z,14408.00
2018-08-30T07:40:32.357Z,14536.00
2018-08-30T07:41:32.253Z,14132.00
2018-08-30T07:42:32.160Z,13404.00
2018-08-30T07:43:32.070Z,12532.00
2018-08-30T07:44:32.129Z,11828.00
2018-08-30T07:45:31.879Z,11248.00
2018-08-30T07:46:31.772Z,10680.00
2018-08-30T07:47:31.681Z,10256.00
2018-08-30T07:48:31.594Z,9984.00
2018-08-30T07:49:31.490Z,9888.00
2018-08-30T07:50:31.403Z,10076.00
2018-08-30T07:51:31.301Z,10564.00
2018-08-30T07:52:31.203Z,11288.00
2018-08-30T07:53:31.113Z,11964.00
2018-08-30T07:54:31.036Z,12532.00
2018-08-30T07:55:30.920Z,12808.00
2018-08-30T07:56:30.817Z,12868.00
2018-08-30T07:57:30.798Z,12920.00
2018-08-30T07:58:30.634Z,12988.00
2018-08-30T07:59:30.531Z,13204.00
2018-08-30T08:00:30.445Z,13468.00
2018-08-30T08:01:30.341Z,13336.00
2018-08-30T08:02:30.251Z,12840.00
2018-08-30T08:03:30.159Z,12044.00
2018-08-30T08:04:30.054Z,11400.00
2018-08-30T08:05:29.961Z,11220.00
2018-08-30T08:06:29.855Z,10976.00
2018-08-30T08:07:29.766Z,10540.00
2018-08-30T08:08:29.680Z,10188.00
2018-08-30T08:09:29.574Z,9764.00
2018-08-30T08:10:29.488Z,9832.00
2018-08-30T08:11:29.380Z,10000.00
2018-08-30T08:12:29.312Z,9768.00
2018-08-30T08:13:29.201Z,9332.00
2018-08-30T08:14:29.096Z,9192.00
2018-08-30T08:15:29.034Z,8888.00
2018-08-30T08:16:28.899Z,7984.00
2018-08-30T08:17:28.807Z,9196.00
2018-08-30T08:18:28.720Z,9648.00
2018-08-30T08:19:28.631Z,9560.00
2018-08-30T08:20:28.521Z,9640.00
2018-08-30T08:21:28.419Z,10508.00
2018-08-30T08:22:28.329Z,9356.00
2018-08-30T08:23:28.239Z,10692.00
2018-08-30T08:24:28.141Z,10096.00
2018-08-30T08:25:28.090Z,9696.00
2018-08-30T08:26:27.939Z,10472.00
2018-08-30T08:27:27.848Z,9656.00
2018-08-30T08:28:27.764Z,9920.00
2018-08-30T08:29:27.658Z,9268.00
2018-08-30T08:30:27.571Z,8112.00
2018-08-30T08:31:27.468Z,7584.00
2018-08-30T08:32:27.374Z,8856.00
2018-08-30T08:33:27.281Z,7736.00
2018-08-30T08:34:27.181Z,7824.00
2018-08-30T08:35:27.091Z,7452.00
2018-08-30T08:36:26.985Z,6944.00
2018-08-30T08:37:26.893Z,6404.00
2018-08-30T08:38:26.799Z,5932.00
2018-08-30T08:39:26.696Z,6440.00
2018-08-30T08:40:26.610Z,6924.00
2018-08-30T08:41:26.507Z,6288.00
2018-08-30T08:42:26.413Z,5364.00
2018-08-30T08:43:26.323Z,5916.00
2018-08-30T08:44:26.224Z,6200.00
2018-08-30T08:45:26.132Z,5884.00
2018-08-30T08:46:26.027Z,6708.00
2018-08-30T08:47:25.938Z,7148.00
2018-08-30T08:48:25.841Z,7692.00
2018-08-30T08:49:25.738Z,7972.00
2018-08-30T08:50:25.652Z,8144.00
2018-08-30T08:51:25.549Z,8732.00
2018-08-30T08:52:25.466Z,8944.00
2018-08-30T08:53:25.363Z,8580.00
2018-08-30T08:54:25.282Z,9252.00
2018-08-30T08:55:25.170Z,9200.00
2018-08-30T08:56:25.071Z,8364.00
2018-08-30T08:57:24.981Z,9604.00
2018-08-30T08:58:24.872Z,11968.00
2018-08-30T08:59:24.780Z,11940.00
2018-08-30T09:00:24.694Z,12644.00
2018-08-30T09:01:24.603Z,13392.00
2018-08-30T09:02:24.501Z,13664.00
2018-08-30T09:03:24.411Z,14036.00
2018-08-30T09:04:24.320Z,12296.00
2018-08-30T09:05:24.213Z,13868.00
2018-08-30T09:06:24.124Z,14116.00
2018-08-30T09:07:24.040Z,13748.00
2018-08-30T09:08:23.925Z,13800.00
2018-08-30T09:09:23.821Z,13232.00
2018-08-30T09:10:23.733Z,10264.00
2018-08-30T09:11:23.641Z,9384.00
2018-08-30T09:12:23.542Z,9100.00
2018-08-30T09:13:23.454Z,7984.00
2018-08-30T09:14:23.406Z,7400.00
2018-08-30T09:15:23.252Z,6940.00
2018-08-30T09:16:23.165Z,6744.00
2018-08-30T09:17:23.062Z,7236.00
2018-08-30T09:18:23.031Z,6592.00
2018-08-30T09:19:22.883Z,6872.00
2018-08-30T09:20:22.776Z,5548.00
2018-08-30T09:21:22.684Z,7228.00
2018-08-30T09:22:22.599Z,6980.00
2018-08-30T09:23:22.496Z,5936.00
2018-08-30T09:24:22.399Z,6612.00
2018-08-30T09:25:22.309Z,6884.00
2018-08-30T09:26:22.203Z,5852.00
2018-08-30T09:27:22.112Z,5736.00
2018-08-30T09:28:22.026Z,6224.00
2018-08-30T09:29:21.923Z,6056.00
2018-08-30T09:30:21.829Z,6212.00
2018-08-30T09:31:21.728Z,5608.00
2018-08-30T09:32:21.641Z,5068.00
2018-08-30T09:33:21.550Z,4744.00
2018-08-30T09:34:21.444Z,4756.00
2018-08-30T09:35:21.355Z,5468.00
2018-08-30T09:36:21.257Z,5272.00
2018-08-30T09:37:21.154Z,5544.00
2018-08-30T09:38:21.068Z,5220.00
2018-08-30T09:39:20.964Z,5280.00
2018-08-30T09:40:20.871Z,5444.00
2018-08-30T09:41:21.032Z,5904.00
2018-08-30T09:42:20.677Z,5616.00
2018-08-30T09:43:20.589Z,5320.00
2018-08-30T09:44:20.500Z,5460.00
2018-08-30T09:45:20.399Z,4316.00
2018-08-30T09:46:20.299Z,4900.00
2018-08-30T09:47:20.200Z,5152.00
2018-08-30T09:48:20.110Z,5364.00
2018-08-30T09:49:20.036Z,5480.00
2018-08-30T09:50:19.923Z,6356.00
2018-08-30T09:51:19.829Z,8052.00
2018-08-30T09:52:19.718Z,9004.00
2018-08-30T09:53:19.627Z,7040.00
2018-08-30T09:54:19.542Z,6604.00
2018-08-30T09:55:19.439Z,5992.00
2018-08-30T09:56:19.343Z,4992.00
2018-08-30T09:57:19.459Z,4288.00
2018-08-30T09:58:19.148Z,3356.00
2018-08-30T09:59:19.055Z,3580.00
2018-08-30T10:00:18.956Z,3996.00
2018-08-30T10:01:18.866Z,4176.00
2018-08-30T10:02:18.761Z,4232.00
2018-08-30T10:03:18.669Z,3988.00
2018-08-30T10:04:18.584Z,4368.00
2018-08-30T10:05:18.480Z,3200.00
2018-08-30T10:06:18.399Z,3548.00
2018-08-30T10:07:18.296Z,6188.00
2018-08-30T10:08:18.188Z,7700.00
2018-08-30T10:09:18.099Z,4908.00
2018-08-30T10:10:17.994Z,3136.00
2018-08-30T10:11:17.904Z,2900.00
2018-08-30T10:12:17.817Z,2548.00
2018-08-30T10:13:17.713Z,2400.00
2018-08-30T10:14:17.626Z,2648.00
2018-08-30T10:15:17.523Z,2480.00
2018-08-30T10:16:17.430Z,3060.00
2018-08-30T10:17:17.337Z,6704.00
2018-08-30T10:18:17.235Z,10216.00
2018-08-30T10:19:17.145Z,9260.00
2018-08-30T10:20:17.038Z,8724.00
2018-08-30T10:21:16.946Z,8496.00
2018-08-30T10:22:16.857Z,9020.00
2018-08-30T10:23:16.753Z,9908.00
2018-08-30T10:24:16.667Z,9980.00
2018-08-30T10:25:16.641Z,9904.00
2018-08-30T10:26:16.468Z,9164.00
2018-08-30T10:27:16.379Z,6492.00
2018-08-30T10:28:16.279Z,4276.00
2018-08-30T10:29:16.187Z,2584.00
2018-08-30T10:30:16.095Z,2344.00
2018-08-30T10:31:16.003Z,2088.00
2018-08-30T10:32:15.954Z,2132.00
2018-08-30T10:33:15.800Z,2656.00
2018-08-30T10:34:15.710Z,6040.00
2018-08-30T10:35:15.618Z,7224.00
2018-08-30T10:36:15.510Z,7020.00
2018-08-30T10:37:15.421Z,7564.00
2018-08-30T10:38:15.330Z,7228.00
2018-08-30T10:39:15.223Z,8100.00
2018-08-30T10:40:15.138Z,8700.00
2018-08-30T10:41:15.037Z,9376.00
2018-08-30T10:42:14.938Z,11308.00
2018-08-30T10:43:14.848Z,10520.00
2018-08-30T10:44:14.757Z,7096.00
2018-08-30T10:45:14.658Z,6192.00
2018-08-30T10:46:14.570Z,4276.00
2018-08-30T10:47:14.467Z,3216.00
2018-08-30T10:48:14.371Z,3116.00
2018-08-30T10:49:14.372Z,2760.00
2018-08-30T10:50:14.180Z,2848.00
2018-08-30T10:51:14.089Z,2348.00
2018-08-30T10:52:13.980Z,2412.00
2018-08-30T10:53:13.890Z,2512.00
2018-08-30T10:54:13.804Z,3236.00
2018-08-30T10:55:13.698Z,4332.00
2018-08-30T10:56:13.676Z,6740.00
2018-08-30T10:57:13.509Z,7712.00
2018-08-30T10:58:13.413Z,7624.00
2018-08-30T10:59:13.323Z,7240.00
2018-08-30T11:00:13.225Z,9000.00
2018-08-30T11:01:13.134Z,8088.00
2018-08-30T11:02:13.027Z,7252.00
2018-08-30T11:03:12.938Z,5624.00
2018-08-30T11:04:12.849Z,4432.00
2018-08-30T11:05:12.738Z,3968.00
2018-08-30T11:06:12.654Z,3848.00
2018-08-30T11:07:12.552Z,3180.00
2018-08-30T11:08:12.455Z,3596.00
2018-08-30T11:09:12.365Z,4144.00
2018-08-30T11:10:12.260Z,4140.00
2018-08-30T11:11:12.167Z,3916.00
2018-08-30T11:12:12.070Z,4080.00
2018-08-30T11:13:11.981Z,3676.00
2018-08-30T11:14:11.885Z,4272.00
2018-08-30T11:15:11.789Z,3888.00
2018-08-30T11:16:11.699Z,3512.00
2018-08-30T11:17:11.593Z,3216.00
2018-08-30T11:18:11.499Z,3400.00
2018-08-30T11:19:11.409Z,3148.00
2018-08-30T11:20:11.303Z,3332.00
2018-08-30T11:21:11.223Z,3392.00
2018-08-30T11:22:11.114Z,3116.00
2018-08-30T11:23:11.023Z,3220.00
2018-08-30T11:24:10.926Z,3216.00
2018-08-30T11:25:10.824Z,3232.00
2018-08-30T11:26:10.734Z,3568.00
2018-08-30T11:27:10.678Z,4208.00
2018-08-30T11:28:10.541Z,4432.00
2018-08-30T11:29:10.439Z,5552.00
2018-08-30T11:30:10.344Z,7560.00
2018-08-30T11:31:10.252Z,9564.00
2018-08-30T11:32:10.154Z,12404.00
2018-08-30T11:33:10.063Z,12372.00
2018-08-30T11:34:09.962Z,12224.00
2018-08-30T11:35:09.874Z,15216.00
2018-08-30T11:36:09.775Z,15828.00
2018-08-30T11:37:09.672Z,16704.00
2018-08-30T11:38:09.582Z,16300.00
2018-08-30T11:39:09.481Z,17792.00
2018-08-30T11:40:09.386Z,18848.00
2018-08-30T11:41:09.352Z,19584.00
2018-08-30T11:42:09.192Z,17888.00
2018-08-30T11:43:09.113Z,15116.00
2018-08-30T11:44:09.015Z,12952.00
2018-08-30T11:45:08.917Z,14104.00
2018-08-30T11:46:08.817Z,12396.00
2018-08-30T11:47:08.725Z,11132.00
2018-08-30T11:48:08.627Z,14296.00
2018-08-30T11:49:08.536Z,12644.00
2018-08-30T11:50:08.443Z,10584.00
2018-08-30T11:51:08.359Z,13040.00
2018-08-30T11:52:08.253Z,12092.00
2018-08-30T11:53:08.154Z,10816.00
2018-08-30T11:54:08.075Z,10740.00
2018-08-30T11:55:07.969Z,10940.00
2018-08-30T11:56:07.928Z,10952.00
2018-08-30T11:57:07.768Z,11708.00
2018-08-30T11:58:07.679Z,7972.00
2018-08-30T11:59:07.584Z,9704.00
2018-08-30T12:00:07.485Z,9340.00
2018-08-30T12:01:07.401Z,9232.00
2018-08-30T12:02:07.299Z,12096.00
2018-08-30T12:03:07.221Z,10268.00
2018-08-30T12:04:07.113Z,11932.00
2018-08-30T12:05:07.019Z,8392.00
2018-08-30T12:06:06.917Z,9104.00
2018-08-30T12:07:06.827Z,11704.00
2018-08-30T12:08:06.900Z,19552.00
2018-08-30T12:09:06.629Z,18016.00
2018-08-30T12:10:06.576Z,11052.00
2018-08-30T12:11:06.582Z,7356.00
2018-08-30T12:12:06.344Z,9428.00
2018-08-30T12:13:06.254Z,10292.00
2018-08-30T12:14:06.162Z,11696.00
2018-08-30T12:15:06.072Z,9448.00
2018-08-30T12:16:05.972Z,12412.00
2018-08-30T12:17:05.881Z,15184.00
2018-08-30T12:18:05.790Z,17448.00
2018-08-30T12:19:05.688Z,13832.00
2018-08-30T12:20:05.592Z,14768.00
2018-08-30T12:21:05.502Z,15612.00
2018-08-30T12:22:05.397Z,19520.00
2018-08-30T12:23:05.306Z,15508.00
2018-08-30T12:24:05.219Z,10528.00